Elm Grove, Louisiana
Current Conditions -  °F | °C
As of 11:58 AM on Thursday 27 Nov 2014 (Local Time) from KBAD Reporting Station
Clear Clear  
Wind Chill: 54°   Ceiling: Unl
Heat Index: 54°   Visibility: 10mi
Dew Point: 26°   Wind: 9mph
Humidity: 34%   Direction: 30°NNE
Pressure: 30.51"   Gusts: NA
Location:  32.35°N, 93.55°W
Report Text: KBAD 271758Z AUTO 03008KT 10SM CLR 12/M04 A3051 RMK AO2 SLP335 T01211036 10121 20024 58009
Loading
Personal Weather Stations






























Interactive Weather Map New forecast layout! Learn more

10-Day Weather Forecast

Advertisements
Track Severe Weather on mobile